This is the latest recevied weather packets stored in our database for station/object W0JRT-6. If no packets are shown the sender has not sent any weather packets the latest 10 day(s).
| Time | Temp. | Humidity | Pressure | Rain* | Wind** | Luminosity | Snow |
|---|---|---|---|---|---|---|---|
| 1777519198 | 7.78° C | 90% | 1018.1 hPa | 0 mm | - | - | - |
| 1777518612 | 7.78° C | 88% | 1017.8 hPa | 0 mm | - | - | - |
| 1777515613 | 9.44° C | 80% | 1016.6 hPa | 0 mm | - | - | - |
| 1777515012 | 10° C | 79% | 1016.3 hPa | 0 mm | - | - | - |
| 1777513804 | 11.11° C | 75% | 1015.6 hPa | 0 mm | - | - | - |
| 1777513209 | 11.67° C | 76% | 1015.2 hPa | 0 mm | - | - | - |
| 1777512009 | 13.33° C | 65% | 1014.6 hPa | 0 mm | - | - | - |
| 1777511411 | 14.44° C | 63% | 1014.3 hPa | 0 mm | - | - | - |
| 1777510804 | 15° C | 58% | 1014.1 hPa | 0 mm | - | - | - |
| 1777510203 | 15.56° C | 52% | 1013.9 hPa | 0 mm | - | - | - |
| 1777509604 | 15.56° C | 50% | 1013.7 hPa | 0 mm | - | - | - |
| 1777509000 | 16.11° C | 49% | 1013.4 hPa | 0 mm | - | - | - |
| 1777508405 | 16.11° C | 48% | 1013.3 hPa | 0 mm | - | - | - |
| 1777506691 | 16.11° C | 48% | 1013.3 hPa | 0 mm | - | - | - |
| 1777506611 | 16.11° C | 48% | 1013.3 hPa | 0 mm | - | - | - |
| 1777505998 | 16.67° C | 48% | 1013.3 hPa | 0 mm | - | - | - |
| 1777503012 | 16.11° C | 48% | 1013.7 hPa | 0 mm | - | - | - |
| 1777501807 | 16.11° C | 48% | 1013.8 hPa | 0 mm | - | - | - |
| 1777501208 | 16.11° C | 49% | 1013.9 hPa | 0 mm | - | - | - |
| 1777500859 | 16.11° C | 50% | 1014 hPa | 0 mm | - | - | - |
| 1777500598 | 16.11° C | 50% | 1014 hPa | 0 mm | - | - | - |
| 1777498806 | 15.56° C | 54% | 1013.9 hPa | 0 mm | - | - | - |
| 1777498199 | 15.56° C | 52% | 1014 hPa | 0 mm | - | - | - |
| 1777497657 | 15.56° C | 50% | 1014.1 hPa | 0 mm | - | - | - |
| 1777497610 | 15.56° C | 50% | 1014.1 hPa | 0 mm | - | - | - |
* Rain since midnight (hover to see other rain measurements)
** Current wind speed in m/s (hover to see current wind gust speed)